createdAt,value
2019-06-15T00:00:42.976Z,5.37
2019-06-15T00:05:48.447Z,5.80
2019-06-15T00:10:53.924Z,4.73
2019-06-15T00:15:59.337Z,7.77
2019-06-15T00:21:04.774Z,8.77
2019-06-15T00:26:10.198Z,6.53
2019-06-15T00:31:15.687Z,7.17
2019-06-15T00:36:21.117Z,7.17
2019-06-15T00:41:26.637Z,6.37
2019-06-15T00:46:32.161Z,7.43
2019-06-15T00:51:37.727Z,6.97
2019-06-15T00:56:43.149Z,5.67
2019-06-15T01:01:48.673Z,9.53
2019-06-15T01:06:54.132Z,6.47
2019-06-15T01:11:59.613Z,7.33
2019-06-15T01:17:05.038Z,7.37
2019-06-15T01:22:10.523Z,7.30
2019-06-15T01:27:15.949Z,6.20
2019-06-15T01:32:21.448Z,6.57
2019-06-15T01:37:26.987Z,8.30
2019-06-15T01:42:32.396Z,6.77
2019-06-15T01:47:37.859Z,7.60
2019-06-15T01:52:43.370Z,8.40
2019-06-15T01:57:48.954Z,7.73
2019-06-15T02:02:54.518Z,6.53
2019-06-15T02:08:00.078Z,7.27
2019-06-15T02:13:05.669Z,8.40
2019-06-15T02:18:11.107Z,7.77
2019-06-15T02:23:16.798Z,10.87
2019-06-15T02:28:22.396Z,8.00
2019-06-15T02:33:28.115Z,8.57
2019-06-15T02:38:33.679Z,8.20
2019-06-15T02:43:39.121Z,6.60
2019-06-15T02:48:44.549Z,10.43
2019-06-15T02:53:50.123Z,7.93
2019-06-15T02:58:55.758Z,9.17
2019-06-15T03:04:01.182Z,10.40
2019-06-15T03:09:07.385Z,9.90
2019-06-15T03:14:12.869Z,9.87
2019-06-15T03:19:18.453Z,13.37
2019-06-15T03:24:23.926Z,10.83
2019-06-15T03:29:29.379Z,10.40
2019-06-15T03:34:34.919Z,9.10
2019-06-15T03:39:40.420Z,10.57
2019-06-15T03:44:45.924Z,8.93
2019-06-15T03:49:51.361Z,10.37
2019-06-15T03:54:56.851Z,10.90
2019-06-15T04:00:02.304Z,11.70
2019-06-15T04:05:07.826Z,12.57
2019-06-15T04:10:13.260Z,9.30
2019-06-15T04:15:18.803Z,7.83
2019-06-15T04:20:24.286Z,12.93
2019-06-15T04:25:29.725Z,12.43
2019-06-15T04:30:35.234Z,11.97
2019-06-15T04:35:40.699Z,11.10
2019-06-15T04:40:46.133Z,10.20
2019-06-15T04:45:51.637Z,8.20
2019-06-15T04:50:57.168Z,7.17
2019-06-15T04:56:02.637Z,11.90
2019-06-15T05:01:08.088Z,8.07
2019-06-15T05:06:13.565Z,11.50
2019-06-15T05:11:19.227Z,8.20
2019-06-15T05:16:24.653Z,10.50
2019-06-15T05:21:30.080Z,9.23
2019-06-15T05:26:35.578Z,8.43
2019-06-15T05:31:41.029Z,7.87
2019-06-15T05:36:46.707Z,5.40
2019-06-15T05:41:52.260Z,7.73
2019-06-15T05:46:58.066Z,7.83
2019-06-15T05:52:03.515Z,8.77
2019-06-15T05:57:20.902Z,5.77
2019-06-15T06:02:16.282Z,8.90
2019-06-15T06:07:21.777Z,5.80
2019-06-15T06:12:28.922Z,5.77
2019-06-15T06:17:34.461Z,11.17
2019-06-15T06:22:39.930Z,9.27
2019-06-15T06:27:45.400Z,6.43
2019-06-15T06:32:50.989Z,8.47
2019-06-15T06:37:56.632Z,6.37
2019-06-15T06:43:02.192Z,7.57
2019-06-15T06:48:07.765Z,6.37
2019-06-15T06:53:13.482Z,4.43
2019-06-15T06:58:19.204Z,6.27
2019-06-15T07:03:24.989Z,4.57
2019-06-15T07:08:30.776Z,4.90
2019-06-15T07:13:36.480Z,8.73
2019-06-15T07:18:42.362Z,5.83
2019-06-15T07:23:48.127Z,5.20
2019-06-15T07:28:53.888Z,5.23
2019-06-15T07:33:59.615Z,8.77
2019-06-15T07:39:06.063Z,5.33
2019-06-15T07:44:11.793Z,5.80
2019-06-15T07:49:17.561Z,4.33
2019-06-15T07:54:23.308Z,6.73
2019-06-15T07:59:29.210Z,4.13
2019-06-15T08:04:34.950Z,3.33
2019-06-15T08:09:40.751Z,3.83
2019-06-15T08:14:46.554Z,4.23
2019-06-15T08:19:52.310Z,1.73
2019-06-15T08:24:58.013Z,2.50
2019-06-15T08:30:03.751Z,4.03
2019-06-15T08:35:09.475Z,4.50
2019-06-15T08:40:15.243Z,3.10
2019-06-15T08:45:20.968Z,1.73
2019-06-15T08:50:26.660Z,3.63
2019-06-15T08:55:32.425Z,2.03
2019-06-15T09:00:38.150Z,1.47
2019-06-15T09:05:43.924Z,3.13
2019-06-15T09:10:49.653Z,3.50
2019-06-15T09:15:55.543Z,2.00
2019-06-15T09:21:01.259Z,3.23
2019-06-15T09:26:06.957Z,2.80
2019-06-15T09:31:12.697Z,2.47
2019-06-15T09:36:18.481Z,4.33
2019-06-15T09:41:24.239Z,2.13
2019-06-15T09:46:29.950Z,3.57
2019-06-15T09:51:35.763Z,3.63
2019-06-15T09:56:41.535Z,2.13
2019-06-15T10:01:47.273Z,4.00
2019-06-15T10:06:53.107Z,3.10
2019-06-15T10:11:58.988Z,4.83
2019-06-15T10:17:04.780Z,2.60
2019-06-15T10:22:10.543Z,2.20
2019-06-15T10:27:16.379Z,4.37
2019-06-15T10:32:22.138Z,3.00
2019-06-15T10:37:27.830Z,4.00
2019-06-15T10:42:33.600Z,3.07
2019-06-15T10:47:39.361Z,3.00
2019-06-15T10:52:45.193Z,3.20
2019-06-15T10:57:50.948Z,3.53
2019-06-15T11:02:56.867Z,2.43
2019-06-15T11:08:02.646Z,3.23
2019-06-15T11:13:08.344Z,2.53
2019-06-15T11:18:14.052Z,3.43
2019-06-15T11:23:19.898Z,5.43
2019-06-15T11:28:25.612Z,3.23
2019-06-15T11:33:31.475Z,2.80
2019-06-15T11:38:37.204Z,1.70
2019-06-15T11:43:43.151Z,3.20
2019-06-15T11:48:48.937Z,2.43
2019-06-15T11:53:54.654Z,2.73
2019-06-15T11:59:00.498Z,3.37
2019-06-15T12:04:06.235Z,1.90
2019-06-15T12:09:12.115Z,1.93
2019-06-15T12:14:18.363Z,1.97
2019-06-15T12:19:24.610Z,2.20
2019-06-15T12:24:30.525Z,3.70
2019-06-15T12:29:36.366Z,3.07
2019-06-15T12:34:42.318Z,2.20
2019-06-15T12:39:48.466Z,2.67
2019-06-15T12:44:54.257Z,2.30
2019-06-15T12:50:00.443Z,3.03
2019-06-15T12:55:06.888Z,4.70
2019-06-15T13:00:13.248Z,2.63
2019-06-15T13:05:19.169Z,2.13
2019-06-15T13:10:25.093Z,2.97
2019-06-15T13:15:30.998Z,2.43
2019-06-15T13:20:37.248Z,2.50
2019-06-15T13:25:43.374Z,2.10
2019-06-15T13:30:49.479Z,3.33
2019-06-15T13:35:55.471Z,1.80
2019-06-15T13:41:01.442Z,2.53
2019-06-15T13:46:07.624Z,2.63
2019-06-15T13:51:13.723Z,2.30
2019-06-15T13:56:19.626Z,2.90
2019-06-15T14:01:34.165Z,2.53
2019-06-15T14:06:32.869Z,5.80
2019-06-15T14:11:38.582Z,5.77
2019-06-15T14:16:44.295Z,3.67
2019-06-15T14:21:50.109Z,4.13
2019-06-15T14:26:55.936Z,2.63
2019-06-15T14:32:02.255Z,2.83
2019-06-15T14:37:08.117Z,3.00
2019-06-15T14:42:13.890Z,2.27
2019-06-15T14:47:19.777Z,4.13
2019-06-15T14:52:25.576Z,2.23
2019-06-15T14:57:31.461Z,4.10
2019-06-15T15:02:38.087Z,5.30
2019-06-15T15:07:43.969Z,3.80
2019-06-15T15:12:49.863Z,4.10
2019-06-15T15:17:57.773Z,8.07
2019-06-15T15:23:03.074Z,3.83
2019-06-15T15:28:08.885Z,3.37
2019-06-15T15:33:14.598Z,2.63
2019-06-15T15:38:20.334Z,2.73
2019-06-15T15:43:26.476Z,3.00
2019-06-15T15:48:32.326Z,3.50
2019-06-15T15:53:38.038Z,3.83
2019-06-15T15:58:43.755Z,3.07
2019-06-15T16:03:49.458Z,2.87
2019-06-15T16:08:56.919Z,2.57
2019-06-15T16:14:02.834Z,4.53
2019-06-15T16:19:08.575Z,4.07
2019-06-15T16:24:16.478Z,4.43
2019-06-15T16:29:21.722Z,3.77
2019-06-15T16:34:27.153Z,3.03
2019-06-15T16:39:32.870Z,2.50
2019-06-15T16:44:38.605Z,3.50
2019-06-15T16:49:46.456Z,4.07
2019-06-15T16:54:51.682Z,3.02
2019-06-15T16:59:57.490Z,3.47
2019-06-15T17:05:02.982Z,3.90
2019-06-15T17:10:08.787Z,3.07
2019-06-15T17:15:16.893Z,2.70
2019-06-15T17:20:27.427Z,3.72
2019-06-15T17:25:33.153Z,3.47
2019-06-15T17:30:38.592Z,4.27
2019-06-15T17:35:56.101Z,3.00
2019-06-15T17:40:51.265Z,5.37
2019-06-15T17:45:56.780Z,3.60
2019-06-15T17:51:02.263Z,4.20
2019-06-15T17:56:07.710Z,2.10
2019-06-15T18:01:13.341Z,3.93
2019-06-15T18:06:18.901Z,4.17
2019-06-15T18:11:26.215Z,3.17
2019-06-15T18:16:31.508Z,3.43
2019-06-15T18:21:40.899Z,3.80
2019-06-15T18:26:44.156Z,5.43
2019-06-15T18:31:49.578Z,4.93
2019-06-15T18:36:56.151Z,8.90
2019-06-15T18:42:01.791Z,4.20
2019-06-15T18:47:07.290Z,3.57
2019-06-15T18:52:12.750Z,3.07
2019-06-15T18:57:18.284Z,4.90
2019-06-15T19:02:23.795Z,6.23
2019-06-15T19:07:29.343Z,4.03
2019-06-15T19:12:34.833Z,4.97
2019-06-15T19:17:40.547Z,4.43
2019-06-15T19:22:47.582Z,2.47
2019-06-15T19:27:53.156Z,7.40
2019-06-15T19:32:58.611Z,6.60
2019-06-15T19:38:06.333Z,4.67
2019-06-15T19:43:11.211Z,5.97
2019-06-15T19:48:17.359Z,3.27
2019-06-15T19:53:22.952Z,4.53
2019-06-15T19:58:28.466Z,12.30
2019-06-15T20:03:36.089Z,4.47
2019-06-15T20:08:41.099Z,8.27
2019-06-15T20:13:47.471Z,4.87
2019-06-15T20:18:53.045Z,7.00
2019-06-15T20:23:58.625Z,4.73
2019-06-15T20:29:04.061Z,9.97
2019-06-15T20:34:09.513Z,5.80
2019-06-15T20:39:16.496Z,6.20
2019-06-15T20:44:22.144Z,3.53
2019-06-15T20:49:27.717Z,3.10
2019-06-15T20:54:33.280Z,4.67
2019-06-15T20:59:38.775Z,5.83
2019-06-15T21:04:44.339Z,4.03
2019-06-15T21:09:49.786Z,4.27
2019-06-15T21:14:56.158Z,3.43
2019-06-15T21:20:01.703Z,2.57
2019-06-15T21:25:07.298Z,4.97
2019-06-15T21:30:12.775Z,6.10
2019-06-15T21:35:18.288Z,4.07
2019-06-15T21:40:23.848Z,3.53
2019-06-15T21:45:29.391Z,5.20
2019-06-15T21:50:36.221Z,3.20
2019-06-15T21:55:41.953Z,2.97
2019-06-15T22:01:33.303Z,3.60
2019-06-15T22:06:38.823Z,4.33
2019-06-15T22:11:47.116Z,4.40
2019-06-15T22:16:52.799Z,4.93
2019-06-15T22:21:58.310Z,4.77
2019-06-15T22:27:03.793Z,5.90
2019-06-15T22:32:09.369Z,6.03
2019-06-15T22:37:17.191Z,5.33
2019-06-15T22:42:22.016Z,3.60
2019-06-15T22:47:27.507Z,4.27
2019-06-15T22:52:33.026Z,4.07
2019-06-15T22:57:38.481Z,4.17
2019-06-15T23:02:46.101Z,9.67
2019-06-15T23:07:51.267Z,6.10
2019-06-15T23:12:56.916Z,6.30
2019-06-15T23:18:02.492Z,5.87
2019-06-15T23:23:08.056Z,5.90
2019-06-15T23:28:13.599Z,9.53
2019-06-15T23:33:19.061Z,5.77
2019-06-15T23:38:26.748Z,7.60
2019-06-15T23:43:31.778Z,10.40
2019-06-15T23:48:37.234Z,7.57
2019-06-15T23:53:42.722Z,5.73
2019-06-15T23:58:48.160Z,5.03
